createdAt,value
2019-05-09T00:00:36.203Z,12.58
2019-05-09T00:03:05.829Z,11.53
2019-05-09T00:05:35.259Z,11.08
2019-05-09T00:08:04.683Z,10.30
2019-05-09T00:10:39.426Z,10.58
2019-05-09T00:13:05.195Z,12.28
2019-05-09T00:15:34.641Z,12.88
2019-05-09T00:18:04.158Z,12.18
2019-05-09T00:20:35.157Z,11.15
2019-05-09T00:23:04.599Z,11.20
2019-05-09T00:25:34.101Z,11.70
2019-05-09T00:28:04.385Z,18.92
2019-05-09T00:30:54.010Z,21.90
2019-05-09T00:33:24.546Z,19.85
2019-05-09T00:35:53.936Z,13.72
2019-05-09T00:38:24.962Z,12.70
2019-05-09T00:40:58.615Z,13.30
2019-05-09T00:43:25.475Z,13.83
2019-05-09T00:46:04.161Z,13.20
2019-05-09T00:51:14.033Z,13.53
2019-05-09T00:53:44.378Z,11.78
2019-05-09T00:56:13.615Z,12.15
2019-05-09T00:58:44.090Z,11.40
2019-05-09T01:01:14.661Z,12.25
2019-05-09T01:03:43.995Z,11.30
2019-05-09T01:06:13.591Z,12.63
2019-05-09T01:08:44.180Z,12.25
2019-05-09T01:11:15.585Z,12.63
2019-05-09T01:13:44.771Z,13.00
2019-05-09T01:16:14.134Z,11.75
2019-05-09T01:18:43.808Z,12.15
2019-05-09T01:21:13.523Z,12.90
2019-05-09T01:23:43.748Z,13.30
2019-05-09T01:26:13.423Z,11.65
2019-05-09T01:28:44.225Z,12.27
2019-05-09T01:31:13.342Z,13.33
2019-05-09T01:33:49.984Z,13.80
2019-05-09T01:36:18.832Z,14.97
2019-05-09T01:38:47.603Z,13.17
2019-05-09T01:41:27.974Z,12.63
2019-05-09T01:43:48.003Z,13.95
2019-05-09T01:46:18.032Z,12.23
2019-05-09T01:48:46.861Z,12.23
2019-05-09T01:51:16.303Z,11.97
2019-05-09T01:53:47.321Z,12.07
2019-05-09T01:56:16.697Z,11.50
2019-05-09T01:58:46.089Z,11.63
2019-05-09T02:01:14.907Z,11.95
2019-05-09T02:03:44.459Z,11.78
2019-05-09T02:06:13.762Z,12.50
2019-05-09T02:08:43.824Z,12.07
2019-05-09T02:11:13.555Z,11.48
2019-05-09T02:13:44.249Z,12.60
2019-05-09T02:16:15.056Z,11.75
2019-05-09T02:21:38.980Z,14.03
2019-05-09T02:24:07.825Z,13.93
2019-05-09T02:26:37.189Z,13.85
2019-05-09T02:29:06.624Z,13.55
2019-05-09T02:31:35.607Z,13.57
2019-05-09T02:34:05.234Z,13.85
2019-05-09T02:36:34.172Z,14.53
2019-05-09T02:39:03.019Z,14.30
2019-05-09T02:41:31.778Z,15.30
2019-05-09T02:44:01.210Z,13.35
2019-05-09T02:46:49.205Z,14.87
2019-05-09T02:49:19.058Z,14.90
2019-05-09T02:51:48.943Z,15.15
2019-05-09T02:54:19.067Z,13.67
2019-05-09T02:56:49.290Z,13.20
2019-05-09T02:59:19.961Z,13.13
2019-05-09T03:01:58.535Z,12.37
2019-05-09T03:04:28.595Z,11.33
2019-05-09T03:06:59.611Z,11.47
2019-05-09T03:09:28.945Z,12.65
2019-05-09T03:11:59.260Z,12.30
2019-05-09T03:14:29.601Z,12.50
2019-05-09T03:16:58.945Z,11.20
2019-05-09T03:19:29.824Z,11.45
2019-05-09T03:22:10.058Z,10.38
2019-05-09T03:24:39.666Z,10.60
2019-05-09T03:27:10.682Z,10.60
2019-05-09T03:32:33.264Z,12.85
2019-05-09T03:35:02.713Z,12.80
2019-05-09T03:37:32.078Z,11.18
2019-05-09T03:40:01.459Z,11.65
2019-05-09T03:42:43.060Z,12.10
2019-05-09T03:45:02.122Z,11.70
2019-05-09T03:50:24.489Z,11.43
2019-05-09T03:52:53.854Z,12.10
2019-05-09T03:55:24.869Z,11.83
2019-05-09T03:58:01.880Z,11.60
2019-05-09T04:00:31.347Z,12.30
2019-05-09T04:03:00.804Z,11.00
2019-05-09T04:05:30.188Z,11.53
2019-05-09T04:08:22.690Z,11.45
2019-05-09T04:10:53.272Z,12.53
2019-05-09T04:13:24.774Z,10.93
2019-05-09T04:15:54.225Z,10.63
2019-05-09T04:18:23.652Z,11.05
2019-05-09T04:20:53.071Z,12.78
2019-05-09T04:23:22.488Z,10.30
2019-05-09T04:26:08.865Z,13.50
2019-05-09T04:28:39.946Z,14.18
2019-05-09T04:31:09.385Z,13.55
2019-05-09T04:33:38.854Z,12.75
2019-05-09T04:36:08.461Z,11.38
2019-05-09T04:38:39.900Z,12.43
2019-05-09T04:41:09.087Z,11.50
2019-05-09T04:43:40.090Z,13.10
2019-05-09T04:46:12.904Z,13.30
2019-05-09T04:48:40.645Z,13.03
2019-05-09T04:51:10.401Z,14.18
2019-05-09T04:53:40.116Z,14.50
2019-05-09T04:56:17.630Z,13.28
2019-05-09T04:58:48.159Z,12.80
2019-05-09T05:01:19.810Z,12.80
2019-05-09T05:03:50.925Z,12.88
2019-05-09T05:06:20.813Z,11.40
2019-05-09T05:08:50.312Z,11.83
2019-05-09T05:11:19.767Z,11.60
2019-05-09T05:13:49.207Z,11.45
2019-05-09T05:16:18.599Z,12.23
2019-05-09T05:18:47.979Z,10.80
2019-05-09T05:21:19.945Z,11.15
2019-05-09T05:23:50.058Z,11.08
2019-05-09T05:26:21.213Z,10.35
2019-05-09T05:28:50.644Z,10.72
2019-05-09T05:31:20.018Z,11.20
2019-05-09T05:33:54.165Z,11.53
2019-05-09T05:36:24.091Z,10.20
2019-05-09T05:38:53.462Z,11.08
2019-05-09T05:41:22.919Z,10.70
2019-05-09T05:43:52.305Z,10.20
2019-05-09T05:46:23.332Z,10.72
2019-05-09T05:48:54.386Z,9.98
2019-05-09T05:51:23.776Z,10.35
2019-05-09T05:53:53.180Z,11.08
2019-05-09T05:56:22.559Z,10.75
2019-05-09T05:58:52.002Z,14.65
2019-05-09T06:01:21.445Z,9.68
2019-05-09T06:03:50.902Z,8.98
2019-05-09T06:06:20.307Z,8.10
2019-05-09T06:08:49.669Z,7.97
2019-05-09T06:11:19.086Z,8.70
2019-05-09T06:13:57.296Z,7.72
2019-05-09T06:16:22.270Z,8.40
2019-05-09T06:18:52.585Z,7.95
2019-05-09T06:21:22.449Z,7.95
2019-05-09T06:23:53.330Z,7.95
2019-05-09T06:26:22.716Z,7.78
2019-05-09T06:28:52.093Z,8.23
2019-05-09T06:31:21.521Z,7.72
2019-05-09T06:33:53.503Z,7.80
2019-05-09T06:36:22.698Z,9.10
2019-05-09T06:38:52.387Z,8.48
2019-05-09T06:41:21.929Z,8.93
2019-05-09T06:44:13.138Z,8.60
2019-05-09T06:46:31.768Z,9.88
2019-05-09T06:49:23.308Z,8.45
2019-05-09T06:51:33.926Z,9.63
2019-05-09T06:54:03.347Z,9.35
2019-05-09T06:56:32.830Z,9.00
2019-05-09T06:59:02.255Z,9.55
2019-05-09T07:01:37.590Z,9.45
2019-05-09T07:04:14.790Z,9.03
2019-05-09T07:06:51.840Z,9.50
2019-05-09T07:09:27.839Z,9.55
2019-05-09T07:11:58.599Z,9.50
2019-05-09T07:14:32.995Z,9.93
2019-05-09T07:17:01.001Z,10.20
2019-05-09T07:19:30.482Z,10.25
2019-05-09T07:22:18.382Z,10.70
2019-05-09T07:25:09.870Z,10.85
2019-05-09T07:27:40.003Z,12.35
2019-05-09T07:30:29.184Z,11.85
2019-05-09T07:33:03.331Z,11.25
2019-05-09T07:35:32.934Z,12.03
2019-05-09T07:38:02.400Z,11.88
2019-05-09T07:40:31.911Z,11.53
2019-05-09T07:43:01.338Z,11.63
2019-05-09T07:45:30.934Z,11.90
2019-05-09T07:48:00.411Z,11.33
2019-05-09T07:50:29.994Z,11.78
2019-05-09T07:52:59.458Z,11.75
2019-05-09T07:55:28.946Z,10.68
2019-05-09T07:57:59.264Z,11.48
2019-05-09T08:00:38.192Z,12.07
2019-05-09T08:03:09.225Z,12.90
2019-05-09T08:05:38.656Z,11.45
2019-05-09T08:08:11.099Z,11.55
2019-05-09T08:10:40.583Z,12.37
2019-05-09T08:13:11.991Z,10.95
2019-05-09T08:15:41.791Z,11.75
2019-05-09T08:18:12.070Z,12.28
2019-05-09T08:20:41.554Z,11.88
2019-05-09T08:23:11.012Z,13.00
2019-05-09T08:25:40.481Z,12.82
2019-05-09T08:28:09.925Z,12.65
2019-05-09T08:30:40.229Z,12.07
2019-05-09T08:33:10.318Z,11.25
2019-05-09T08:35:40.999Z,12.68
2019-05-09T08:38:10.471Z,11.53
2019-05-09T08:40:42.727Z,9.53
2019-05-09T08:43:12.328Z,11.60
2019-05-09T08:45:41.949Z,11.40
2019-05-09T08:48:11.507Z,10.25
2019-05-09T08:50:47.914Z,10.65
2019-05-09T08:53:18.874Z,11.30
2019-05-09T08:55:48.009Z,10.80
2019-05-09T08:58:19.545Z,11.12
2019-05-09T09:00:49.214Z,10.72
2019-05-09T09:03:18.816Z,11.00
2019-05-09T09:05:50.939Z,10.72
2019-05-09T09:08:22.559Z,10.23
2019-05-09T09:10:52.042Z,11.68
2019-05-09T09:13:24.411Z,10.50
2019-05-09T09:16:12.120Z,12.30
2019-05-09T09:18:25.186Z,10.58
2019-05-09T09:20:54.807Z,10.65
2019-05-09T09:23:39.040Z,11.25
2019-05-09T09:25:58.818Z,12.63
2019-05-09T09:28:31.576Z,11.00
2019-05-09T09:31:00.857Z,10.07
2019-05-09T09:33:30.584Z,10.30
2019-05-09T09:36:00.142Z,10.25
2019-05-09T09:38:30.979Z,10.50
2019-05-09T09:41:00.740Z,9.95
2019-05-09T09:43:30.082Z,10.17
2019-05-09T09:46:10.936Z,10.78
2019-05-09T09:48:35.280Z,11.40
2019-05-09T09:51:04.770Z,10.88
2019-05-09T09:53:34.767Z,13.38
2019-05-09T09:56:04.315Z,11.73
2019-05-09T09:58:33.748Z,10.72
2019-05-09T10:01:20.134Z,10.55
2019-05-09T10:03:51.132Z,9.45
2019-05-09T10:06:20.955Z,11.18
2019-05-09T10:08:50.320Z,12.07
2019-05-09T10:11:20.081Z,11.15
2019-05-09T10:13:51.911Z,10.23
2019-05-09T10:16:29.055Z,10.48
2019-05-09T10:19:00.680Z,9.35
2019-05-09T10:21:40.615Z,9.40
2019-05-09T10:24:10.339Z,10.53
2019-05-09T10:26:41.110Z,10.00
2019-05-09T10:29:10.652Z,9.65
2019-05-09T10:31:40.174Z,9.60
2019-05-09T10:34:11.764Z,8.83
2019-05-09T10:36:42.592Z,8.78
2019-05-09T10:39:13.717Z,8.13
2019-05-09T10:41:43.155Z,7.25
2019-05-09T10:44:14.163Z,8.25
2019-05-09T10:46:53.652Z,8.13
2019-05-09T10:49:15.820Z,9.23
2019-05-09T10:51:44.964Z,10.17
2019-05-09T10:54:14.264Z,9.40
2019-05-09T10:56:43.452Z,9.10
2019-05-09T10:59:12.649Z,7.50
2019-05-09T11:01:44.579Z,7.50
2019-05-09T11:04:13.846Z,7.40
2019-05-09T11:06:43.570Z,7.47
2019-05-09T11:09:12.963Z,6.93
2019-05-09T11:11:42.312Z,7.50
2019-05-09T11:14:32.128Z,7.30
2019-05-09T11:17:07.825Z,7.60
2019-05-09T11:19:28.529Z,7.17
2019-05-09T11:22:03.345Z,6.77
2019-05-09T11:24:42.915Z,6.37
2019-05-09T11:27:08.298Z,6.17
2019-05-09T11:29:34.520Z,6.53
2019-05-09T11:32:03.819Z,6.67
2019-05-09T11:34:33.016Z,6.00
2019-05-09T11:37:02.153Z,6.80
2019-05-09T11:39:36.631Z,6.43
2019-05-09T11:42:02.539Z,6.70
2019-05-09T11:44:33.275Z,6.77
2019-05-09T11:47:02.496Z,6.33
2019-05-09T11:49:38.970Z,6.17
2019-05-09T11:52:08.373Z,6.73
2019-05-09T11:54:43.187Z,5.80
2019-05-09T11:57:20.030Z,7.33
2019-05-09T11:59:58.063Z,6.00
2019-05-09T12:02:28.939Z,5.33
2019-05-09T12:05:02.192Z,5.57
2019-05-09T12:07:33.445Z,6.93
2019-05-09T12:10:07.874Z,5.50
2019-05-09T12:12:38.941Z,5.33
2019-05-09T12:15:10.894Z,5.80
2019-05-09T12:17:56.064Z,5.60
2019-05-09T12:20:13.709Z,5.80
2019-05-09T12:22:48.330Z,5.60
2019-05-09T12:25:19.595Z,5.30
2019-05-09T12:27:51.668Z,5.17
2019-05-09T12:30:21.445Z,4.93
2019-05-09T12:32:50.667Z,4.97
2019-05-09T12:35:20.103Z,5.77
2019-05-09T12:37:49.337Z,5.73
2019-05-09T12:40:20.122Z,5.60
2019-05-09T12:42:51.934Z,5.90
2019-05-09T12:45:21.133Z,5.93
2019-05-09T12:48:06.467Z,5.50
2019-05-09T12:50:24.329Z,5.00
2019-05-09T12:52:58.114Z,5.20
2019-05-09T12:55:27.645Z,5.13
2019-05-09T12:57:59.432Z,5.40
2019-05-09T13:00:28.472Z,4.67
2019-05-09T13:02:59.421Z,4.77
2019-05-09T13:05:30.336Z,5.13
2019-05-09T13:08:01.789Z,5.10
2019-05-09T13:10:30.478Z,4.73
2019-05-09T13:12:59.929Z,5.47
2019-05-09T13:15:31.582Z,4.93
2019-05-09T13:18:02.998Z,5.37
2019-05-09T13:20:35.318Z,5.62
2019-05-09T13:23:08.917Z,5.30
2019-05-09T13:25:38.526Z,5.50
2019-05-09T13:28:08.386Z,5.20
2019-05-09T13:30:38.160Z,4.83
2019-05-09T13:33:10.730Z,5.08
2019-05-09T13:35:40.726Z,5.20
2019-05-09T13:38:10.382Z,4.90
2019-05-09T13:40:39.868Z,5.60
2019-05-09T13:43:09.444Z,5.25
2019-05-09T13:45:38.914Z,4.97
2019-05-09T13:48:26.413Z,5.30
2019-05-09T13:50:39.679Z,6.80
2019-05-09T13:53:09.108Z,5.75
2019-05-09T13:55:38.526Z,5.92
2019-05-09T13:58:08.120Z,5.00
2019-05-09T14:00:54.856Z,6.22
2019-05-09T14:03:11.791Z,6.28
2019-05-09T14:05:41.382Z,8.13
2019-05-09T14:08:11.713Z,7.42
2019-05-09T14:10:41.400Z,7.05
2019-05-09T14:13:14.151Z,6.95
2019-05-09T14:15:44.279Z,8.25
2019-05-09T14:18:13.897Z,6.80
2019-05-09T14:20:43.323Z,6.62
2019-05-09T14:23:12.805Z,6.50
2019-05-09T14:25:42.195Z,6.15
2019-05-09T14:28:11.633Z,5.42
2019-05-09T14:30:50.111Z,6.00
2019-05-09T14:33:19.612Z,5.95
2019-05-09T14:35:49.394Z,6.22
2019-05-09T14:38:18.930Z,6.28
2019-05-09T14:40:48.411Z,7.30
2019-05-09T14:43:18.571Z,6.53
2019-05-09T14:45:48.416Z,8.00
2019-05-09T14:48:18.940Z,8.63
2019-05-09T14:50:49.546Z,10.50
2019-05-09T14:53:19.409Z,9.70
2019-05-09T14:55:48.886Z,7.42
2019-05-09T14:58:18.390Z,6.58
2019-05-09T15:00:49.473Z,7.12
2019-05-09T15:03:19.858Z,6.78
2019-05-09T15:05:49.583Z,7.20
2019-05-09T15:08:19.221Z,8.38
2019-05-09T15:10:51.569Z,7.50
2019-05-09T15:13:21.175Z,7.28
2019-05-09T15:15:50.656Z,7.80
2019-05-09T15:18:20.058Z,7.30
2019-05-09T15:20:49.558Z,7.62
2019-05-09T15:23:19.638Z,8.35
2019-05-09T15:25:49.422Z,8.58
2019-05-09T15:28:18.929Z,8.03
2019-05-09T15:30:49.009Z,8.83
2019-05-09T15:33:18.474Z,8.50
2019-05-09T15:35:50.973Z,8.28
2019-05-09T15:38:22.418Z,8.70
2019-05-09T15:40:51.639Z,9.68
2019-05-09T15:43:21.129Z,10.78
2019-05-09T15:45:52.199Z,8.40
2019-05-09T15:48:21.641Z,8.95
2019-05-09T15:50:50.996Z,9.25
2019-05-09T15:53:20.691Z,9.70
2019-05-09T15:55:50.088Z,9.90
2019-05-09T15:58:19.501Z,9.60
2019-05-09T16:00:49.150Z,9.50
2019-05-09T16:03:18.794Z,9.80
2019-05-09T16:05:51.660Z,9.48
2019-05-09T16:08:21.138Z,10.72
2019-05-09T16:10:50.505Z,9.63
2019-05-09T16:13:19.908Z,8.95
2019-05-09T16:15:49.320Z,9.35
2019-05-09T16:18:18.789Z,10.23
2019-05-09T16:20:48.806Z,13.65
2019-05-09T16:23:18.557Z,15.13
2019-05-09T16:25:48.132Z,13.68
2019-05-09T16:28:18.543Z,14.87
2019-05-09T16:30:48.429Z,15.95
2019-05-09T16:33:18.368Z,16.20
2019-05-09T16:35:48.804Z,14.73
2019-05-09T16:38:19.104Z,11.68
2019-05-09T16:40:48.513Z,12.30
2019-05-09T16:43:17.961Z,19.23
2019-05-09T16:45:47.935Z,16.23
2019-05-09T16:48:18.487Z,16.02
2019-05-09T16:51:00.418Z,13.40
2019-05-09T16:53:19.448Z,12.18
2019-05-09T16:55:48.851Z,11.38
2019-05-09T16:58:18.868Z,17.82
2019-05-09T17:00:50.260Z,28.92
2019-05-09T17:03:19.706Z,19.80
2019-05-09T17:06:10.179Z,12.50
2019-05-09T17:08:40.829Z,13.38
2019-05-09T17:11:10.591Z,15.00
2019-05-09T17:13:40.011Z,15.20
2019-05-09T17:16:09.569Z,13.53
2019-05-09T17:18:39.224Z,40.65
2019-05-09T17:21:21.495Z,27.25
2019-05-09T17:23:48.159Z,25.48
2019-05-09T17:26:18.477Z,32.30
2019-05-09T17:28:48.478Z,19.50
2019-05-09T17:31:19.782Z,20.15
2019-05-09T17:37:11.274Z,31.20
2019-05-09T17:39:45.951Z,29.98
2019-05-09T17:42:38.118Z,17.50
2019-05-09T17:45:11.744Z,15.83
2019-05-09T17:47:44.394Z,13.90
2019-05-09T17:50:22.077Z,13.30
2019-05-09T17:52:47.984Z,15.45
2019-05-09T17:55:18.174Z,21.75
2019-05-09T17:57:48.169Z,21.60
2019-05-09T18:00:21.689Z,19.90
2019-05-09T18:02:49.390Z,19.12
2019-05-09T18:05:19.198Z,17.62
2019-05-09T18:07:49.554Z,20.88
2019-05-09T18:10:20.696Z,21.42
2019-05-09T18:12:50.363Z,20.72
2019-05-09T18:15:20.201Z,18.95
2019-05-09T18:17:49.731Z,17.02
2019-05-09T18:20:19.252Z,17.95
2019-05-09T18:22:50.599Z,17.52
2019-05-09T18:25:20.130Z,14.25
2019-05-09T18:27:49.479Z,17.12
2019-05-09T18:30:19.275Z,13.35
2019-05-09T18:32:58.833Z,13.62
2019-05-09T18:35:29.596Z,15.03
2019-05-09T18:37:59.374Z,14.07
2019-05-09T18:40:29.054Z,15.80
2019-05-09T18:42:58.570Z,12.98
2019-05-09T18:45:28.502Z,13.00
2019-05-09T18:47:58.259Z,14.00
2019-05-09T18:50:27.741Z,15.23
2019-05-09T18:52:58.651Z,14.43
2019-05-09T18:55:28.358Z,18.20
2019-05-09T18:57:57.828Z,19.35
2019-05-09T19:00:27.854Z,18.20
2019-05-09T19:02:57.572Z,19.55
2019-05-09T19:05:27.124Z,19.27
2019-05-09T19:07:58.435Z,17.45
2019-05-09T19:10:28.271Z,17.82
2019-05-09T19:13:01.302Z,16.73
2019-05-09T19:15:32.285Z,17.20
2019-05-09T19:18:15.445Z,15.88
2019-05-09T19:20:52.633Z,20.25
2019-05-09T19:23:22.117Z,20.68
2019-05-09T19:25:53.087Z,24.07
2019-05-09T19:28:24.161Z,23.55
2019-05-09T19:30:53.895Z,24.20
2019-05-09T19:33:25.811Z,24.02
2019-05-09T19:35:55.274Z,19.65
2019-05-09T19:38:24.827Z,18.65
2019-05-09T19:40:54.312Z,17.80
2019-05-09T19:43:23.785Z,16.05
2019-05-09T19:45:53.255Z,17.07
2019-05-09T19:48:22.733Z,16.07
2019-05-09T19:50:52.146Z,16.05
2019-05-09T19:53:21.636Z,16.45
2019-05-09T19:55:51.191Z,14.85
2019-05-09T19:58:20.766Z,16.00
2019-05-09T20:00:50.158Z,17.32
2019-05-09T20:03:19.604Z,16.45
2019-05-09T20:05:49.078Z,20.08
2019-05-09T20:08:18.476Z,22.30
2019-05-09T20:13:38.273Z,25.00
2019-05-09T20:16:07.724Z,21.87
2019-05-09T20:18:37.157Z,19.87
2019-05-09T20:21:06.607Z,20.32
2019-05-09T20:23:36.023Z,19.00
2019-05-09T20:26:05.504Z,18.17
2019-05-09T20:28:35.015Z,17.73
2019-05-09T20:31:04.377Z,16.93
2019-05-09T20:33:33.767Z,16.70
2019-05-09T20:36:03.171Z,15.80
2019-05-09T20:38:32.735Z,15.88
2019-05-09T20:41:02.379Z,16.23
2019-05-09T20:43:32.017Z,16.30
2019-05-09T20:46:01.549Z,15.13
2019-05-09T20:48:31.267Z,15.23
2019-05-09T20:51:00.828Z,15.35
2019-05-09T20:53:30.400Z,14.83
2019-05-09T20:56:00.026Z,15.23
2019-05-09T20:58:29.648Z,14.75
2019-05-09T21:00:59.261Z,15.58
2019-05-09T21:03:28.816Z,16.87
2019-05-09T21:05:58.384Z,15.43
2019-05-09T21:08:28.009Z,15.32
2019-05-09T21:10:57.582Z,14.03
2019-05-09T21:13:27.147Z,14.80
2019-05-09T21:15:56.788Z,13.80
2019-05-09T21:18:26.475Z,14.43
2019-05-09T21:20:56.099Z,14.15
2019-05-09T21:23:25.721Z,14.00
2019-05-09T21:25:55.341Z,13.35
2019-05-09T21:28:25.021Z,14.63
2019-05-09T21:30:54.559Z,15.08
2019-05-09T21:33:24.243Z,15.38
2019-05-09T21:35:53.682Z,17.40
2019-05-09T21:38:23.085Z,18.62
2019-05-09T21:40:52.509Z,24.55
2019-05-09T21:43:21.939Z,27.05
2019-05-09T21:45:51.377Z,19.77
2019-05-09T21:48:20.755Z,17.07
2019-05-09T21:50:50.124Z,16.17
2019-05-09T21:53:19.593Z,15.98
2019-05-09T21:55:49.016Z,16.25
2019-05-09T21:58:18.401Z,15.98
2019-05-09T22:00:50.762Z,16.90
2019-05-09T22:03:20.695Z,17.10
2019-05-09T22:05:50.071Z,16.52
2019-05-09T22:08:19.457Z,17.48
2019-05-09T22:10:48.831Z,17.90
2019-05-09T22:13:18.285Z,18.40
2019-05-09T22:15:47.929Z,18.67
2019-05-09T22:18:17.382Z,17.85
2019-05-09T22:20:46.837Z,17.50
2019-05-09T22:23:16.219Z,18.12
2019-05-09T22:25:45.628Z,17.15
2019-05-09T22:28:15.097Z,19.00
2019-05-09T22:30:44.542Z,19.35
2019-05-09T22:33:13.976Z,19.07
2019-05-09T22:35:43.360Z,19.32
2019-05-09T22:38:12.704Z,24.72
2019-05-09T22:40:42.174Z,27.05
2019-05-09T22:43:11.533Z,27.55
2019-05-09T22:45:41.002Z,22.48
2019-05-09T22:48:10.440Z,24.05
2019-05-09T22:50:39.791Z,20.40
2019-05-09T22:53:09.183Z,20.62
2019-05-09T22:55:38.576Z,20.32
2019-05-09T22:58:07.987Z,22.02
2019-05-09T23:00:37.472Z,22.98
2019-05-09T23:03:06.871Z,21.20
2019-05-09T23:05:36.299Z,24.70
2019-05-09T23:08:05.666Z,25.50
2019-05-09T23:10:35.093Z,25.97
2019-05-09T23:13:04.561Z,23.47
2019-05-09T23:15:34.004Z,22.07
2019-05-09T23:18:03.437Z,22.80
2019-05-09T23:23:22.421Z,22.37
2019-05-09T23:25:51.872Z,24.70
2019-05-09T23:28:21.329Z,23.47
2019-05-09T23:30:52.340Z,23.40
2019-05-09T23:33:22.644Z,21.90
2019-05-09T23:35:52.058Z,21.35
2019-05-09T23:38:21.514Z,22.70
2019-05-09T23:40:50.893Z,23.52
2019-05-09T23:43:20.314Z,22.05
2019-05-09T23:45:49.677Z,23.95
2019-05-09T23:48:19.059Z,21.07
2019-05-09T23:50:48.458Z,23.18
2019-05-09T23:53:21.199Z,23.22
2019-05-09T23:56:08.306Z,24.32
2019-05-09T23:58:55.695Z,24.07
